sensor_id;sensor_type;location;lat;lon;timestamp;P1;durP1;ratioP1;P2;durP2;ratioP2
32445;SDS011;18899;50.748;7.102;2022-09-03T00:00:31;1.25;;;0.82;;
32445;SDS011;18899;50.748;7.102;2022-09-03T00:03:03;2.10;;;0.88;;
32445;SDS011;18899;50.748;7.102;2022-09-03T00:05:38;1.40;;;0.80;;
32445;SDS011;18899;50.748;7.102;2022-09-03T00:08:13;1.65;;;0.80;;
32445;SDS011;18899;50.748;7.102;2022-09-03T00:10:44;2.28;;;0.90;;
32445;SDS011;18899;50.748;7.102;2022-09-03T00:13:35;2.40;;;1.00;;
32445;SDS011;18899;50.748;7.102;2022-09-03T00:16:20;2.72;;;1.25;;
32445;SDS011;18899;50.748;7.102;2022-09-03T00:18:55;2.45;;;0.90;;
32445;SDS011;18899;50.748;7.102;2022-09-03T00:24:04;0.85;;;0.60;;
32445;SDS011;18899;50.748;7.102;2022-09-03T00:26:33;1.30;;;0.82;;
32445;SDS011;18899;50.748;7.102;2022-09-03T00:29:02;4.30;;;0.95;;
32445;SDS011;18899;50.748;7.102;2022-09-03T00:31:34;2.05;;;1.00;;
32445;SDS011;18899;50.748;7.102;2022-09-03T00:34:10;1.30;;;0.88;;
32445;SDS011;18899;50.748;7.102;2022-09-03T00:36:50;2.65;;;0.98;;
32445;SDS011;18899;50.748;7.102;2022-09-03T00:39:18;2.03;;;0.82;;
32445;SDS011;18899;50.748;7.102;2022-09-03T00:53:25;1.75;;;0.90;;
32445;SDS011;18899;50.748;7.102;2022-09-03T01:04:27;1.33;;;0.80;;
32445;SDS011;18899;50.748;7.102;2022-09-03T01:07:24;2.08;;;0.77;;
32445;SDS011;18899;50.748;7.102;2022-09-03T01:10:06;3.10;;;1.17;;
32445;SDS011;18899;50.748;7.102;2022-09-03T01:23:47;5.70;;;1.00;;
32445;SDS011;18899;50.748;7.102;2022-09-03T01:28:55;4.88;;;1.45;;
32445;SDS011;18899;50.748;7.102;2022-09-03T01:34:21;1.38;;;0.88;;
32445;SDS011;18899;50.748;7.102;2022-09-03T01:36:56;4.68;;;1.58;;
32445;SDS011;18899;50.748;7.102;2022-09-03T01:53:27;3.63;;;1.05;;
32445;SDS011;18899;50.748;7.102;2022-09-03T01:58:43;1.05;;;0.80;;
32445;SDS011;18899;50.748;7.102;2022-09-03T02:01:42;2.08;;;1.05;;
32445;SDS011;18899;50.748;7.102;2022-09-03T02:04:15;1.33;;;0.90;;
32445;SDS011;18899;50.748;7.102;2022-09-03T02:06:44;2.47;;;1.17;;
32445;SDS011;18899;50.748;7.102;2022-09-03T02:09:12;1.95;;;1.00;;
32445;SDS011;18899;50.748;7.102;2022-09-03T02:11:39;1.38;;;0.95;;
32445;SDS011;18899;50.748;7.102;2022-09-03T02:14:07;1.58;;;0.95;;
32445;SDS011;18899;50.748;7.102;2022-09-03T02:16:33;2.22;;;0.80;;
32445;SDS011;18899;50.748;7.102;2022-09-03T02:19:06;1.55;;;1.00;;
32445;SDS011;18899;50.748;7.102;2022-09-03T02:21:37;1.98;;;0.98;;
32445;SDS011;18899;50.748;7.102;2022-09-03T02:24:04;5.28;;;1.30;;
32445;SDS011;18899;50.748;7.102;2022-09-03T02:26:31;2.58;;;1.13;;
32445;SDS011;18899;50.748;7.102;2022-09-03T02:28:57;3.35;;;1.20;;
32445;SDS011;18899;50.748;7.102;2022-09-03T02:31:25;3.50;;;0.98;;
32445;SDS011;18899;50.748;7.102;2022-09-03T02:33:51;1.77;;;0.80;;
32445;SDS011;18899;50.748;7.102;2022-09-03T02:36:18;13.27;;;1.90;;
32445;SDS011;18899;50.748;7.102;2022-09-03T02:38:49;4.95;;;1.10;;
32445;SDS011;18899;50.748;7.102;2022-09-03T02:41:14;2.35;;;1.00;;
32445;SDS011;18899;50.748;7.102;2022-09-03T02:43:48;1.73;;;1.13;;
32445;SDS011;18899;50.748;7.102;2022-09-03T02:46:21;1.35;;;0.90;;
32445;SDS011;18899;50.748;7.102;2022-09-03T02:48:51;2.42;;;0.80;;
32445;SDS011;18899;50.748;7.102;2022-09-03T02:51:17;1.52;;;0.90;;
32445;SDS011;18899;50.748;7.102;2022-09-03T02:53:42;2.90;;;0.90;;
32445;SDS011;18899;50.748;7.102;2022-09-03T02:56:08;4.60;;;0.90;;
32445;SDS011;18899;50.748;7.102;2022-09-03T02:58:33;2.30;;;0.95;;
32445;SDS011;18899;50.748;7.102;2022-09-03T03:00:59;3.58;;;1.30;;
32445;SDS011;18899;50.748;7.102;2022-09-03T03:03:25;1.10;;;0.80;;
32445;SDS011;18899;50.748;7.102;2022-09-03T03:05:52;3.90;;;0.93;;
32445;SDS011;18899;50.748;7.102;2022-09-03T03:08:20;7.53;;;1.20;;
32445;SDS011;18899;50.748;7.102;2022-09-03T03:10:50;1.35;;;0.70;;
32445;SDS011;18899;50.748;7.102;2022-09-03T03:13:16;1.67;;;1.02;;
32445;SDS011;18899;50.748;7.102;2022-09-03T03:15:42;2.47;;;0.90;;
32445;SDS011;18899;50.748;7.102;2022-09-03T03:18:08;2.00;;;0.93;;
32445;SDS011;18899;50.748;7.102;2022-09-03T03:20:38;2.35;;;0.60;;
32445;SDS011;18899;50.748;7.102;2022-09-03T03:23:04;1.83;;;0.88;;
32445;SDS011;18899;50.748;7.102;2022-09-03T03:25:31;1.58;;;0.90;;
32445;SDS011;18899;50.748;7.102;2022-09-03T03:28:01;1.55;;;0.77;;
32445;SDS011;18899;50.748;7.102;2022-09-03T03:30:28;1.13;;;0.70;;
32445;SDS011;18899;50.748;7.102;2022-09-03T03:32:54;2.45;;;1.05;;
32445;SDS011;18899;50.748;7.102;2022-09-03T03:35:19;1.27;;;0.77;;
32445;SDS011;18899;50.748;7.102;2022-09-03T03:37:45;1.20;;;0.65;;
32445;SDS011;18899;50.748;7.102;2022-09-03T03:40:11;4.60;;;0.73;;
32445;SDS011;18899;50.748;7.102;2022-09-03T03:42:37;1.30;;;0.63;;
32445;SDS011;18899;50.748;7.102;2022-09-03T03:45:03;1.58;;;0.70;;
32445;SDS011;18899;50.748;7.102;2022-09-03T03:47:30;4.15;;;0.75;;
32445;SDS011;18899;50.748;7.102;2022-09-03T03:49:56;1.98;;;0.93;;
32445;SDS011;18899;50.748;7.102;2022-09-03T03:52:22;1.20;;;0.60;;
32445;SDS011;18899;50.748;7.102;2022-09-03T03:54:48;2.42;;;0.68;;
32445;SDS011;18899;50.748;7.102;2022-09-03T03:57:15;2.60;;;0.75;;
32445;SDS011;18899;50.748;7.102;2022-09-03T03:59:40;1.30;;;0.90;;
32445;SDS011;18899;50.748;7.102;2022-09-03T04:02:06;1.42;;;0.60;;
32445;SDS011;18899;50.748;7.102;2022-09-03T04:04:32;2.38;;;0.60;;
32445;SDS011;18899;50.748;7.102;2022-09-03T04:06:58;1.15;;;0.70;;
32445;SDS011;18899;50.748;7.102;2022-09-03T04:09:23;2.15;;;0.88;;
32445;SDS011;18899;50.748;7.102;2022-09-03T04:11:49;2.78;;;0.70;;
32445;SDS011;18899;50.748;7.102;2022-09-03T04:14:15;1.23;;;0.55;;
32445;SDS011;18899;50.748;7.102;2022-09-03T04:16:42;1.98;;;0.70;;
32445;SDS011;18899;50.748;7.102;2022-09-03T04:19:10;1.58;;;0.60;;
32445;SDS011;18899;50.748;7.102;2022-09-03T04:21:37;1.23;;;0.68;;
32445;SDS011;18899;50.748;7.102;2022-09-03T04:24:03;1.65;;;0.70;;
32445;SDS011;18899;50.748;7.102;2022-09-03T04:26:30;1.00;;;0.60;;
32445;SDS011;18899;50.748;7.102;2022-09-03T04:29:02;2.65;;;0.77;;
32445;SDS011;18899;50.748;7.102;2022-09-03T04:31:30;1.95;;;0.90;;
32445;SDS011;18899;50.748;7.102;2022-09-03T04:33:55;1.20;;;0.65;;
32445;SDS011;18899;50.748;7.102;2022-09-03T04:36:22;3.20;;;0.73;;
32445;SDS011;18899;50.748;7.102;2022-09-03T04:38:49;3.33;;;0.88;;
32445;SDS011;18899;50.748;7.102;2022-09-03T04:41:19;1.52;;;0.80;;
32445;SDS011;18899;50.748;7.102;2022-09-03T04:43:46;4.07;;;0.70;;
32445;SDS011;18899;50.748;7.102;2022-09-03T04:46:13;1.73;;;1.25;;
32445;SDS011;18899;50.748;7.102;2022-09-03T04:48:39;0.80;;;0.65;;
32445;SDS011;18899;50.748;7.102;2022-09-03T04:51:07;2.78;;;0.80;;
32445;SDS011;18899;50.748;7.102;2022-09-03T04:53:34;1.35;;;0.80;;
32445;SDS011;18899;50.748;7.102;2022-09-03T04:56:02;1.15;;;0.70;;
32445;SDS011;18899;50.748;7.102;2022-09-03T04:58:28;1.75;;;0.80;;
32445;SDS011;18899;50.748;7.102;2022-09-03T05:00:53;2.08;;;0.85;;
32445;SDS011;18899;50.748;7.102;2022-09-03T05:03:20;8.02;;;1.23;;
32445;SDS011;18899;50.748;7.102;2022-09-03T05:05:53;1.25;;;0.73;;
32445;SDS011;18899;50.748;7.102;2022-09-03T05:08:20;0.80;;;0.70;;
32445;SDS011;18899;50.748;7.102;2022-09-03T05:10:46;2.35;;;0.95;;
32445;SDS011;18899;50.748;7.102;2022-09-03T05:13:12;1.63;;;0.90;;
32445;SDS011;18899;50.748;7.102;2022-09-03T05:15:37;3.33;;;1.08;;
32445;SDS011;18899;50.748;7.102;2022-09-03T05:18:03;3.63;;;0.82;;
32445;SDS011;18899;50.748;7.102;2022-09-03T05:20:29;1.50;;;0.82;;
32445;SDS011;18899;50.748;7.102;2022-09-03T05:22:56;4.72;;;1.88;;
32445;SDS011;18899;50.748;7.102;2022-09-03T05:25:26;4.60;;;1.10;;
32445;SDS011;18899;50.748;7.102;2022-09-03T05:27:52;2.40;;;1.30;;
32445;SDS011;18899;50.748;7.102;2022-09-03T05:30:18;1.67;;;1.00;;
32445;SDS011;18899;50.748;7.102;2022-09-03T05:32:46;1.90;;;0.90;;
32445;SDS011;18899;50.748;7.102;2022-09-03T05:35:12;2.40;;;1.05;;
32445;SDS011;18899;50.748;7.102;2022-09-03T05:37:38;2.90;;;1.13;;
32445;SDS011;18899;50.748;7.102;2022-09-03T05:40:04;3.78;;;0.75;;
32445;SDS011;18899;50.748;7.102;2022-09-03T05:42:30;2.47;;;0.70;;
32445;SDS011;18899;50.748;7.102;2022-09-03T05:45:03;4.68;;;0.88;;
32445;SDS011;18899;50.748;7.102;2022-09-03T05:47:34;2.45;;;1.05;;
32445;SDS011;18899;50.748;7.102;2022-09-03T05:50:05;1.73;;;0.82;;
32445;SDS011;18899;50.748;7.102;2022-09-03T05:52:32;2.58;;;0.90;;
32445;SDS011;18899;50.748;7.102;2022-09-03T05:54:58;1.13;;;0.80;;
32445;SDS011;18899;50.748;7.102;2022-09-03T05:57:24;2.38;;;0.88;;
32445;SDS011;18899;50.748;7.102;2022-09-03T05:59:49;1.60;;;0.68;;
32445;SDS011;18899;50.748;7.102;2022-09-03T06:02:15;1.80;;;0.90;;
32445;SDS011;18899;50.748;7.102;2022-09-03T06:04:43;1.55;;;0.85;;
32445;SDS011;18899;50.748;7.102;2022-09-03T06:07:09;2.83;;;1.05;;
32445;SDS011;18899;50.748;7.102;2022-09-03T06:09:34;1.50;;;0.80;;
32445;SDS011;18899;50.748;7.102;2022-09-03T06:12:00;8.43;;;1.88;;
32445;SDS011;18899;50.748;7.102;2022-09-03T06:14:26;1.48;;;0.80;;
32445;SDS011;18899;50.748;7.102;2022-09-03T06:16:51;2.10;;;0.77;;
32445;SDS011;18899;50.748;7.102;2022-09-03T06:19:17;1.80;;;0.70;;
32445;SDS011;18899;50.748;7.102;2022-09-03T06:21:43;1.45;;;0.70;;
32445;SDS011;18899;50.748;7.102;2022-09-03T06:24:17;1.45;;;0.80;;
32445;SDS011;18899;50.748;7.102;2022-09-03T06:26:45;0.98;;;0.65;;
32445;SDS011;18899;50.748;7.102;2022-09-03T06:29:11;0.82;;;0.40;;
32445;SDS011;18899;50.748;7.102;2022-09-03T06:31:37;0.90;;;0.60;;
32445;SDS011;18899;50.748;7.102;2022-09-03T06:34:03;2.28;;;0.70;;
32445;SDS011;18899;50.748;7.102;2022-09-03T06:36:30;1.75;;;0.77;;
32445;SDS011;18899;50.748;7.102;2022-09-03T06:38:55;2.88;;;0.82;;
32445;SDS011;18899;50.748;7.102;2022-09-03T06:41:22;1.15;;;0.60;;
32445;SDS011;18899;50.748;7.102;2022-09-03T06:43:51;1.73;;;0.50;;
32445;SDS011;18899;50.748;7.102;2022-09-03T06:46:28;0.80;;;0.50;;
32445;SDS011;18899;50.748;7.102;2022-09-03T06:48:56;0.82;;;0.60;;
32445;SDS011;18899;50.748;7.102;2022-09-03T06:51:22;0.98;;;0.60;;
32445;SDS011;18899;50.748;7.102;2022-09-03T06:53:50;2.33;;;0.60;;
32445;SDS011;18899;50.748;7.102;2022-09-03T06:56:19;2.58;;;1.02;;
32445;SDS011;18899;50.748;7.102;2022-09-03T06:58:56;1.15;;;0.52;;
32445;SDS011;18899;50.748;7.102;2022-09-03T07:01:26;1.25;;;0.57;;
32445;SDS011;18899;50.748;7.102;2022-09-03T07:03:55;1.02;;;0.55;;
32445;SDS011;18899;50.748;7.102;2022-09-03T07:08:52;1.00;;;0.65;;
32445;SDS011;18899;50.748;7.102;2022-09-03T07:11:19;1.70;;;0.63;;
32445;SDS011;18899;50.748;7.102;2022-09-03T07:13:47;1.25;;;0.80;;
32445;SDS011;18899;50.748;7.102;2022-09-03T07:16:18;1.42;;;0.57;;
32445;SDS011;18899;50.748;7.102;2022-09-03T07:18:45;1.38;;;0.73;;
32445;SDS011;18899;50.748;7.102;2022-09-03T07:21:16;1.30;;;0.70;;
32445;SDS011;18899;50.748;7.102;2022-09-03T07:23:43;2.30;;;0.80;;
32445;SDS011;18899;50.748;7.102;2022-09-03T07:26:11;1.85;;;0.90;;
32445;SDS011;18899;50.748;7.102;2022-09-03T07:28:39;2.85;;;0.60;;
32445;SDS011;18899;50.748;7.102;2022-09-03T07:31:08;1.48;;;0.65;;
32445;SDS011;18899;50.748;7.102;2022-09-03T07:33:39;2.67;;;0.80;;
32445;SDS011;18899;50.748;7.102;2022-09-03T07:36:12;3.83;;;0.80;;
32445;SDS011;18899;50.748;7.102;2022-09-03T07:38:40;1.30;;;0.80;;
32445;SDS011;18899;50.748;7.102;2022-09-03T07:41:07;1.17;;;0.68;;
32445;SDS011;18899;50.748;7.102;2022-09-03T07:43:40;3.10;;;0.70;;
32445;SDS011;18899;50.748;7.102;2022-09-03T07:46:07;3.00;;;0.80;;
32445;SDS011;18899;50.748;7.102;2022-09-03T07:48:36;1.77;;;0.82;;
32445;SDS011;18899;50.748;7.102;2022-09-03T07:51:05;2.40;;;0.90;;
32445;SDS011;18899;50.748;7.102;2022-09-03T07:53:32;1.90;;;0.75;;
32445;SDS011;18899;50.748;7.102;2022-09-03T07:56:05;1.67;;;0.70;;
32445;SDS011;18899;50.748;7.102;2022-09-03T07:58:32;1.65;;;0.90;;
32445;SDS011;18899;50.748;7.102;2022-09-03T08:01:02;2.22;;;1.27;;
32445;SDS011;18899;50.748;7.102;2022-09-03T08:03:35;3.92;;;1.02;;
32445;SDS011;18899;50.748;7.102;2022-09-03T08:06:02;3.08;;;1.17;;
32445;SDS011;18899;50.748;7.102;2022-09-03T08:08:30;1.77;;;0.98;;
32445;SDS011;18899;50.748;7.102;2022-09-03T08:11:02;1.83;;;0.95;;
32445;SDS011;18899;50.748;7.102;2022-09-03T08:13:34;4.72;;;1.17;;
32445;SDS011;18899;50.748;7.102;2022-09-03T08:16:02;2.63;;;1.27;;
32445;SDS011;18899;50.748;7.102;2022-09-03T08:18:28;3.00;;;1.33;;
32445;SDS011;18899;50.748;7.102;2022-09-03T08:20:57;3.20;;;1.20;;
32445;SDS011;18899;50.748;7.102;2022-09-03T08:23:24;2.80;;;1.48;;
32445;SDS011;18899;50.748;7.102;2022-09-03T08:25:56;4.50;;;1.40;;
32445;SDS011;18899;50.748;7.102;2022-09-03T08:28:25;6.45;;;1.70;;
32445;SDS011;18899;50.748;7.102;2022-09-03T08:30:51;2.53;;;1.08;;
32445;SDS011;18899;50.748;7.102;2022-09-03T08:33:17;3.70;;;1.40;;
32445;SDS011;18899;50.748;7.102;2022-09-03T08:36:01;2.35;;;1.40;;
32445;SDS011;18899;50.748;7.102;2022-09-03T08:38:31;3.75;;;1.60;;
32445;SDS011;18899;50.748;7.102;2022-09-03T08:44:04;1.70;;;1.40;;
32445;SDS011;18899;50.748;7.102;2022-09-03T08:46:42;3.30;;;1.50;;
32445;SDS011;18899;50.748;7.102;2022-09-03T08:49:33;3.17;;;2.05;;
32445;SDS011;18899;50.748;7.102;2022-09-03T08:57:54;5.28;;;2.03;;
32445;SDS011;18899;50.748;7.102;2022-09-03T09:06:01;3.67;;;1.98;;
32445;SDS011;18899;50.748;7.102;2022-09-03T09:08:42;2.17;;;1.30;;
32445;SDS011;18899;50.748;7.102;2022-09-03T09:22:12;1.90;;;1.10;;
32445;SDS011;18899;50.748;7.102;2022-09-03T09:24:18;2.95;;;0.90;;
32445;SDS011;18899;50.748;7.102;2022-09-03T09:27:01;2.10;;;1.17;;
32445;SDS011;18899;50.748;7.102;2022-09-03T09:29:30;2.42;;;1.20;;
32445;SDS011;18899;50.748;7.102;2022-09-03T09:31:57;5.95;;;1.00;;
32445;SDS011;18899;50.748;7.102;2022-09-03T09:34:23;3.83;;;1.23;;
32445;SDS011;18899;50.748;7.102;2022-09-03T09:36:53;1.27;;;0.95;;
32445;SDS011;18899;50.748;7.102;2022-09-03T09:39:20;2.22;;;1.20;;
32445;SDS011;18899;50.748;7.102;2022-09-03T09:44:26;4.53;;;0.88;;
32445;SDS011;18899;50.748;7.102;2022-09-03T09:47:00;1.60;;;1.00;;
32445;SDS011;18899;50.748;7.102;2022-09-03T09:49:36;2.97;;;1.13;;
32445;SDS011;18899;50.748;7.102;2022-09-03T09:52:11;1.67;;;1.05;;
32445;SDS011;18899;50.748;7.102;2022-09-03T09:54:40;1.88;;;0.95;;
32445;SDS011;18899;50.748;7.102;2022-09-03T09:57:12;2.55;;;0.93;;
32445;SDS011;18899;50.748;7.102;2022-09-03T09:59:44;2.72;;;0.80;;
32445;SDS011;18899;50.748;7.102;2022-09-03T10:02:11;2.60;;;1.02;;
32445;SDS011;18899;50.748;7.102;2022-09-03T10:04:39;1.70;;;0.90;;
32445;SDS011;18899;50.748;7.102;2022-09-03T10:07:20;2.00;;;0.88;;
32445;SDS011;18899;50.748;7.102;2022-09-03T10:12:32;2.63;;;1.00;;
32445;SDS011;18899;50.748;7.102;2022-09-03T10:20:38;1.35;;;0.88;;
32445;SDS011;18899;50.748;7.102;2022-09-03T10:23:38;1.58;;;0.90;;
32445;SDS011;18899;50.748;7.102;2022-09-03T10:26:32;3.88;;;1.20;;
32445;SDS011;18899;50.748;7.102;2022-09-03T10:29:01;1.92;;;1.20;;
32445;SDS011;18899;50.748;7.102;2022-09-03T10:34:15;2.60;;;0.88;;
32445;SDS011;18899;50.748;7.102;2022-09-03T10:48:46;2.15;;;1.02;;
32445;SDS011;18899;50.748;7.102;2022-09-03T10:51:34;4.53;;;1.27;;
32445;SDS011;18899;50.748;7.102;2022-09-03T10:59:24;4.25;;;1.35;;
32445;SDS011;18899;50.748;7.102;2022-09-03T11:08:20;1.73;;;1.13;;
32445;SDS011;18899;50.748;7.102;2022-09-03T11:10:32;2.83;;;1.23;;
32445;SDS011;18899;50.748;7.102;2022-09-03T11:15:44;2.30;;;1.10;;
32445;SDS011;18899;50.748;7.102;2022-09-03T11:18:18;2.10;;;1.23;;
32445;SDS011;18899;50.748;7.102;2022-09-03T11:20:44;3.08;;;1.10;;
32445;SDS011;18899;50.748;7.102;2022-09-03T11:23:13;7.25;;;1.58;;
32445;SDS011;18899;50.748;7.102;2022-09-03T11:25:51;2.33;;;1.40;;
32445;SDS011;18899;50.748;7.102;2022-09-03T11:28:29;3.10;;;1.60;;
32445;SDS011;18899;50.748;7.102;2022-09-03T11:33:50;4.45;;;1.60;;
32445;SDS011;18899;50.748;7.102;2022-09-03T11:38:59;2.25;;;1.17;;
32445;SDS011;18899;50.748;7.102;2022-09-03T11:41:36;1.83;;;1.30;;
32445;SDS011;18899;50.748;7.102;2022-09-03T11:44:17;3.10;;;1.20;;
32445;SDS011;18899;50.748;7.102;2022-09-03T11:46:56;4.38;;;1.27;;
32445;SDS011;18899;50.748;7.102;2022-09-03T11:49:29;3.42;;;1.30;;
32445;SDS011;18899;50.748;7.102;2022-09-03T11:51:58;3.03;;;1.50;;
32445;SDS011;18899;50.748;7.102;2022-09-03T11:54:26;3.83;;;1.67;;
32445;SDS011;18899;50.748;7.102;2022-09-03T11:57:11;2.83;;;1.30;;
32445;SDS011;18899;50.748;7.102;2022-09-03T11:59:39;3.40;;;1.45;;
32445;SDS011;18899;50.748;7.102;2022-09-03T12:05:06;6.82;;;1.60;;
32445;SDS011;18899;50.748;7.102;2022-09-03T12:12:48;2.00;;;1.50;;
32445;SDS011;18899;50.748;7.102;2022-09-03T12:18:10;5.38;;;1.58;;
32445;SDS011;18899;50.748;7.102;2022-09-03T12:20:43;3.90;;;1.50;;
32445;SDS011;18899;50.748;7.102;2022-09-03T12:23:24;7.75;;;1.73;;
32445;SDS011;18899;50.748;7.102;2022-09-03T12:25:54;2.85;;;1.55;;
32445;SDS011;18899;50.748;7.102;2022-09-03T12:28:23;2.65;;;1.30;;
32445;SDS011;18899;50.748;7.102;2022-09-03T12:30:50;3.25;;;1.80;;
32445;SDS011;18899;50.748;7.102;2022-09-03T12:33:18;5.15;;;1.65;;
32445;SDS011;18899;50.748;7.102;2022-09-03T12:35:55;2.65;;;1.80;;
32445;SDS011;18899;50.748;7.102;2022-09-03T12:38:23;2.63;;;1.48;;
32445;SDS011;18899;50.748;7.102;2022-09-03T12:40:49;3.25;;;1.65;;
32445;SDS011;18899;50.748;7.102;2022-09-03T12:43:16;2.83;;;1.67;;
32445;SDS011;18899;50.748;7.102;2022-09-03T12:45:45;3.65;;;1.30;;
32445;SDS011;18899;50.748;7.102;2022-09-03T12:48:13;2.53;;;1.58;;
32445;SDS011;18899;50.748;7.102;2022-09-03T12:50:42;3.65;;;1.20;;
32445;SDS011;18899;50.748;7.102;2022-09-03T12:53:10;2.33;;;1.50;;
32445;SDS011;18899;50.748;7.102;2022-09-03T12:55:42;3.42;;;1.60;;
32445;SDS011;18899;50.748;7.102;2022-09-03T12:58:13;3.30;;;1.45;;
32445;SDS011;18899;50.748;7.102;2022-09-03T13:00:46;2.92;;;1.48;;
32445;SDS011;18899;50.748;7.102;2022-09-03T13:03:48;2.70;;;1.60;;
32445;SDS011;18899;50.748;7.102;2022-09-03T13:06:25;2.22;;;1.45;;
32445;SDS011;18899;50.748;7.102;2022-09-03T13:08:54;3.85;;;1.20;;
32445;SDS011;18899;50.748;7.102;2022-09-03T13:11:24;2.38;;;1.35;;
32445;SDS011;18899;50.748;7.102;2022-09-03T13:13:53;2.08;;;1.30;;
32445;SDS011;18899;50.748;7.102;2022-09-03T13:27:13;3.38;;;1.55;;
32445;SDS011;18899;50.748;7.102;2022-09-03T13:30:08;1.52;;;1.23;;
32445;SDS011;18899;50.748;7.102;2022-09-03T13:32:43;2.08;;;1.48;;
32445;SDS011;18899;50.748;7.102;2022-09-03T13:38:28;2.67;;;1.50;;
32445;SDS011;18899;50.748;7.102;2022-09-03T13:41:43;3.75;;;1.60;;
32445;SDS011;18899;50.748;7.102;2022-09-03T13:47:09;5.18;;;1.80;;
32445;SDS011;18899;50.748;7.102;2022-09-03T13:52:45;2.00;;;1.25;;
32445;SDS011;18899;50.748;7.102;2022-09-03T13:55:27;2.03;;;1.05;;
32445;SDS011;18899;50.748;7.102;2022-09-03T14:00:33;3.05;;;2.00;;
32445;SDS011;18899;50.748;7.102;2022-09-03T14:03:09;3.38;;;1.10;;
32445;SDS011;18899;50.748;7.102;2022-09-03T14:25:24;1.88;;;1.10;;
32445;SDS011;18899;50.748;7.102;2022-09-03T14:27:51;2.00;;;1.02;;
32445;SDS011;18899;50.748;7.102;2022-09-03T14:30:24;2.25;;;1.45;;
32445;SDS011;18899;50.748;7.102;2022-09-03T14:46:31;3.60;;;1.95;;
32445;SDS011;18899;50.748;7.102;2022-09-03T14:49:16;2.67;;;1.63;;
32445;SDS011;18899;50.748;7.102;2022-09-03T15:00:07;2.03;;;1.30;;
32445;SDS011;18899;50.748;7.102;2022-09-03T15:05:44;2.20;;;1.30;;
32445;SDS011;18899;50.748;7.102;2022-09-03T15:08:48;1.98;;;1.40;;
32445;SDS011;18899;50.748;7.102;2022-09-03T15:13:50;1.83;;;1.10;;
32445;SDS011;18899;50.748;7.102;2022-09-03T15:22:28;2.47;;;1.30;;
32445;SDS011;18899;50.748;7.102;2022-09-03T15:36:49;3.15;;;1.30;;
32445;SDS011;18899;50.748;7.102;2022-09-03T15:41:59;4.30;;;1.05;;
32445;SDS011;18899;50.748;7.102;2022-09-03T15:44:35;5.90;;;1.40;;
32445;SDS011;18899;50.748;7.102;2022-09-03T15:47:12;2.35;;;1.30;;
32445;SDS011;18899;50.748;7.102;2022-09-03T15:50:13;1.40;;;1.00;;
32445;SDS011;18899;50.748;7.102;2022-09-03T15:52:53;6.43;;;1.20;;
32445;SDS011;18899;50.748;7.102;2022-09-03T16:01:03;1.70;;;1.00;;
32445;SDS011;18899;50.748;7.102;2022-09-03T16:06:46;2.38;;;1.10;;
32445;SDS011;18899;50.748;7.102;2022-09-03T16:09:35;1.60;;;1.00;;
32445;SDS011;18899;50.748;7.102;2022-09-03T16:12:23;2.90;;;1.00;;
32445;SDS011;18899;50.748;7.102;2022-09-03T16:15:09;1.40;;;0.93;;
32445;SDS011;18899;50.748;7.102;2022-09-03T16:18:03;3.33;;;1.33;;
32445;SDS011;18899;50.748;7.102;2022-09-03T16:21:01;2.83;;;1.30;;
32445;SDS011;18899;50.748;7.102;2022-09-03T16:26:26;4.18;;;1.42;;
32445;SDS011;18899;50.748;7.102;2022-09-03T16:29:07;5.97;;;1.75;;
32445;SDS011;18899;50.748;7.102;2022-09-03T16:34:08;2.75;;;1.17;;
32445;SDS011;18899;50.748;7.102;2022-09-03T16:36:57;3.83;;;1.70;;
32445;SDS011;18899;50.748;7.102;2022-09-03T16:44:50;6.63;;;1.80;;
32445;SDS011;18899;50.748;7.102;2022-09-03T16:50:41;2.83;;;1.67;;
32445;SDS011;18899;50.748;7.102;2022-09-03T16:53:29;4.88;;;1.40;;
32445;SDS011;18899;50.748;7.102;2022-09-03T16:56:30;3.47;;;1.80;;
32445;SDS011;18899;50.748;7.102;2022-09-03T16:59:10;2.58;;;1.15;;
32445;SDS011;18899;50.748;7.102;2022-09-03T17:07:49;2.50;;;0.98;;
32445;SDS011;18899;50.748;7.102;2022-09-03T17:13:22;3.28;;;1.10;;
32445;SDS011;18899;50.748;7.102;2022-09-03T17:16:15;2.40;;;0.90;;
32445;SDS011;18899;50.748;7.102;2022-09-03T17:24:49;2.38;;;1.40;;
32445;SDS011;18899;50.748;7.102;2022-09-03T17:27:26;2.22;;;1.10;;
32445;SDS011;18899;50.748;7.102;2022-09-03T17:30:06;4.70;;;2.03;;
32445;SDS011;18899;50.748;7.102;2022-09-03T17:46:36;2.97;;;1.70;;
32445;SDS011;18899;50.748;7.102;2022-09-03T17:49:26;3.50;;;1.85;;
32445;SDS011;18899;50.748;7.102;2022-09-03T17:52:03;2.17;;;1.40;;
32445;SDS011;18899;50.748;7.102;2022-09-03T17:54:40;2.67;;;1.58;;
32445;SDS011;18899;50.748;7.102;2022-09-03T17:57:19;1.85;;;1.48;;
32445;SDS011;18899;50.748;7.102;2022-09-03T18:00:03;3.80;;;1.60;;
32445;SDS011;18899;50.748;7.102;2022-09-03T18:02:51;3.33;;;1.95;;
32445;SDS011;18899;50.748;7.102;2022-09-03T18:05:33;3.03;;;1.63;;
32445;SDS011;18899;50.748;7.102;2022-09-03T18:11:19;3.47;;;2.05;;
32445;SDS011;18899;50.748;7.102;2022-09-03T18:16:31;6.00;;;2.05;;
32445;SDS011;18899;50.748;7.102;2022-09-03T18:21:56;2.60;;;1.73;;
32445;SDS011;18899;50.748;7.102;2022-09-03T18:24:50;7.10;;;2.05;;
32445;SDS011;18899;50.748;7.102;2022-09-03T18:27:44;5.28;;;2.00;;
32445;SDS011;18899;50.748;7.102;2022-09-03T18:30:33;5.90;;;2.20;;
32445;SDS011;18899;50.748;7.102;2022-09-03T18:33:19;4.25;;;2.05;;
32445;SDS011;18899;50.748;7.102;2022-09-03T18:36:06;5.38;;;2.55;;
32445;SDS011;18899;50.748;7.102;2022-09-03T18:38:51;4.88;;;2.35;;
32445;SDS011;18899;50.748;7.102;2022-09-03T18:45:02;11.15;;;2.13;;
32445;SDS011;18899;50.748;7.102;2022-09-03T18:48:16;4.95;;;2.10;;
32445;SDS011;18899;50.748;7.102;2022-09-03T18:57:49;4.28;;;2.40;;
32445;SDS011;18899;50.748;7.102;2022-09-03T19:00:49;3.85;;;2.70;;
32445;SDS011;18899;50.748;7.102;2022-09-03T19:10:13;3.30;;;2.38;;
32445;SDS011;18899;50.748;7.102;2022-09-03T19:13:23;5.03;;;2.50;;
32445;SDS011;18899;50.748;7.102;2022-09-03T19:16:20;4.05;;;2.38;;
32445;SDS011;18899;50.748;7.102;2022-09-03T19:22:51;2.90;;;2.10;;
32445;SDS011;18899;50.748;7.102;2022-09-03T19:25:35;4.10;;;2.30;;
32445;SDS011;18899;50.748;7.102;2022-09-03T19:52:48;6.03;;;3.10;;
32445;SDS011;18899;50.748;7.102;2022-09-03T19:55:46;5.50;;;3.28;;
32445;SDS011;18899;50.748;7.102;2022-09-03T19:58:35;4.72;;;3.30;;
32445;SDS011;18899;50.748;7.102;2022-09-03T20:01:26;9.07;;;3.72;;
32445;SDS011;18899;50.748;7.102;2022-09-03T20:04:16;6.88;;;4.10;;
32445;SDS011;18899;50.748;7.102;2022-09-03T20:07:00;6.68;;;4.32;;
32445;SDS011;18899;50.748;7.102;2022-09-03T20:09:47;6.22;;;4.28;;
32445;SDS011;18899;50.748;7.102;2022-09-03T20:12:34;5.22;;;3.85;;
32445;SDS011;18899;50.748;7.102;2022-09-03T20:15:04;7.57;;;4.25;;
32445;SDS011;18899;50.748;7.102;2022-09-03T20:25:28;6.43;;;4.80;;
32445;SDS011;18899;50.748;7.102;2022-09-03T20:28:33;6.38;;;4.47;;
32445;SDS011;18899;50.748;7.102;2022-09-03T20:31:22;5.45;;;4.20;;
32445;SDS011;18899;50.748;7.102;2022-09-03T20:39:37;6.75;;;4.40;;
32445;SDS011;18899;50.748;7.102;2022-09-03T20:42:17;7.47;;;4.45;;
32445;SDS011;18899;50.748;7.102;2022-09-03T20:45:18;10.13;;;4.47;;
32445;SDS011;18899;50.748;7.102;2022-09-03T20:48:03;6.10;;;4.40;;
32445;SDS011;18899;50.748;7.102;2022-09-03T20:50:58;5.78;;;4.70;;
32445;SDS011;18899;50.748;7.102;2022-09-03T21:07:32;6.80;;;4.78;;
32445;SDS011;18899;50.748;7.102;2022-09-03T21:18:18;6.88;;;5.20;;
32445;SDS011;18899;50.748;7.102;2022-09-03T21:21:04;6.90;;;4.47;;
32445;SDS011;18899;50.748;7.102;2022-09-03T21:23:47;9.63;;;5.38;;
32445;SDS011;18899;50.748;7.102;2022-09-03T21:26:22;10.38;;;4.93;;
32445;SDS011;18899;50.748;7.102;2022-09-03T21:29:02;8.13;;;5.10;;
32445;SDS011;18899;50.748;7.102;2022-09-03T21:34:39;8.00;;;4.80;;
32445;SDS011;18899;50.748;7.102;2022-09-03T21:37:27;7.05;;;4.75;;
32445;SDS011;18899;50.748;7.102;2022-09-03T21:39:58;8.52;;;5.15;;